Pagina principale
METAR-TAF:

METAR-TAF

Aeroporti :

Ithaca, New York, Stati Uniti

latitudine: 42-29N, longitudine: 076-27W, altezza: 335 m

Osservazione

Il bollettino è stato emesso 28 minuti fa, alle 09:56 UTC
Vento 3 kt da est/nord-est
Temperature 6°C
Umidità 100%
Pressione 1025 hPa
Visibilità: 16.1 km
Cielo sereno

METAR: KITH 230956Z AUTO 07003KT 10SM CLR 06/06 A3026 RMK AO2 SLP251 T00610056

Ora: 06:24 (10:24 UTC)

Previsione

Il bollettino è stato emesso 1 ora e 19 minuti fa, alle 09:05 UTC
Previsione valida dal 23 alle 09 UTC al 24 alle 06 UTC
Vento 4 kt da est/nord-est
Visibilità: 10 km
Nubi sparse ad un'altezza di 25000 ft
Temporaneamente
dal 23 alle 10 UTC al 23 alle 12 UTC
Visibilità: 4.8 km
foschia
A partire da 23 alle 1300 UTC
Vento 3 kt da direzioni variabili
Visibilità: 10 km
Nubi sparse ad un'altezza di 25000 ft

TAF: KITH 230905Z 2309/2406 07004KT P6SM SCT250 TEMPO 2310/2312 3SM BR FM231300 VRB03KT P6SM SCT250

Osservazioni e previsioni meteorologiche di più di 4000 aeroporti (messaggi METAR e TAF).

Le stazioni disponibili sono rappresentate dai dischi gialli e rossi sulla carta.

Puntare il mouse per vedere il nome della stazione.

Clicca sopra per visualizzare le osservazioni e previsioni meteorologiche.

Per cambiare la mappa : fare clic sui pulsanti verdi con una croce nera per ingrandire, il pulsante verde con un trattino per diminuire, o sulla freccia verde per le mappe adiacenti.


METAR-TAF: